createdAt,value
2022-07-29T00:02:23.298Z,72.12
2022-07-29T00:04:50.359Z,72.99
2022-07-29T00:07:18.995Z,73.23
2022-07-29T00:09:52.043Z,72.33
2022-07-29T00:12:21.479Z,71.68
2022-07-29T00:14:52.684Z,71.87
2022-07-29T00:17:19.469Z,71.69
2022-07-29T00:19:46.129Z,74.14
2022-07-29T00:22:12.852Z,72.35
2022-07-29T00:24:39.481Z,72.61
2022-07-29T00:27:09.072Z,72.76
2022-07-29T00:29:35.864Z,73.48
2022-07-29T00:32:03.644Z,73.28
2022-07-29T00:34:48.932Z,73.81
2022-07-29T00:37:15.634Z,73.41
2022-07-29T00:39:42.602Z,73.97
2022-07-29T00:42:09.281Z,73.46
2022-07-29T00:44:39.651Z,73.45
2022-07-29T00:47:08.481Z,74.21
2022-07-29T00:49:35.634Z,74.75
2022-07-29T00:52:03.420Z,74.99
2022-07-29T00:54:30.300Z,75.02
2022-07-29T00:56:58.971Z,75.56
2022-07-29T00:59:26.631Z,75.00
2022-07-29T01:02:02.110Z,75.59
2022-07-29T01:04:30.906Z,74.81
2022-07-29T01:06:57.661Z,76.26
2022-07-29T01:09:42.849Z,75.32
2022-07-29T01:12:11.582Z,74.49
2022-07-29T01:14:41.025Z,74.72
2022-07-29T01:17:18.825Z,75.54
2022-07-29T01:20:07.733Z,76.75
2022-07-29T01:22:58.077Z,76.48
2022-07-29T01:25:39.915Z,76.50
2022-07-29T01:28:18.683Z,76.60
2022-07-29T01:30:46.633Z,77.19
2022-07-29T01:33:36.379Z,76.71
2022-07-29T01:36:09.098Z,77.39
2022-07-29T01:38:37.041Z,76.96
2022-07-29T01:41:06.936Z,76.76
2022-07-29T01:43:42.700Z,76.55
2022-07-29T01:46:15.557Z,76.44
2022-07-29T01:48:47.066Z,77.52
2022-07-29T01:51:21.908Z,78.21
2022-07-29T01:53:51.613Z,77.46
2022-07-29T01:56:26.937Z,77.73
2022-07-29T01:59:01.205Z,79.13
2022-07-29T02:01:36.026Z,78.29
2022-07-29T02:04:07.794Z,79.23
2022-07-29T02:06:37.008Z,78.74
2022-07-29T02:09:05.461Z,78.50
2022-07-29T02:11:36.708Z,78.73
2022-07-29T02:14:05.095Z,78.90
2022-07-29T02:16:33.609Z,78.35
2022-07-29T02:19:02.132Z,78.57
2022-07-29T02:21:29.325Z,79.30
2022-07-29T02:23:57.150Z,78.10
2022-07-29T02:26:27.722Z,78.96
2022-07-29T02:28:56.157Z,79.31
2022-07-29T02:31:24.298Z,78.46
2022-07-29T02:33:51.537Z,80.00
2022-07-29T02:36:19.020Z,78.72
2022-07-29T02:38:52.254Z,78.47
2022-07-29T02:41:21.176Z,79.96
2022-07-29T02:43:49.094Z,79.62
2022-07-29T02:46:28.754Z,79.45
2022-07-29T02:49:03.185Z,79.92
2022-07-29T02:51:44.007Z,80.05
2022-07-29T02:54:12.913Z,79.86
2022-07-29T02:56:56.669Z,79.41
2022-07-29T02:59:29.766Z,78.86
2022-07-29T03:01:58.917Z,79.49
2022-07-29T03:04:29.648Z,78.33
2022-07-29T03:13:52.529Z,78.52
2022-07-29T03:16:20.190Z,79.22
2022-07-29T03:18:47.805Z,78.51
2022-07-29T03:21:18.370Z,79.64
2022-07-29T03:23:49.922Z,78.88
2022-07-29T03:26:16.524Z,79.14
2022-07-29T03:28:43.057Z,78.98
2022-07-29T03:31:09.579Z,79.53
2022-07-29T03:33:36.110Z,79.75
2022-07-29T03:36:03.511Z,78.96
2022-07-29T03:38:31.616Z,77.82
2022-07-29T03:41:02.551Z,77.61
2022-07-29T03:43:31.905Z,77.26
2022-07-29T03:46:02.092Z,77.14
2022-07-29T03:48:30.737Z,77.09
2022-07-29T03:58:13.779Z,76.59
2022-07-29T04:00:51.030Z,75.37
2022-07-29T04:03:20.144Z,75.29
2022-07-29T04:05:58.604Z,77.52
2022-07-29T04:08:28.414Z,77.81
2022-07-29T04:10:56.049Z,78.23
2022-07-29T04:13:29.211Z,78.28
2022-07-29T04:15:58.749Z,79.59
2022-07-29T04:18:28.774Z,78.80
2022-07-29T04:21:02.062Z,78.17
2022-07-29T04:23:33.575Z,78.88
2022-07-29T04:26:01.431Z,79.92
2022-07-29T04:28:28.070Z,79.90
2022-07-29T04:30:54.679Z,79.53
2022-07-29T04:33:21.299Z,79.39
2022-07-29T04:37:14.725Z,79.31
2022-07-29T04:39:43.488Z,78.36
2022-07-29T04:42:15.914Z,79.38
2022-07-29T04:51:57.679Z,80.61
2022-07-29T04:54:30.563Z,79.77
2022-07-29T04:57:05.496Z,80.92
2022-07-29T04:59:32.285Z,78.88
2022-07-29T05:01:58.939Z,79.26
2022-07-29T05:04:25.923Z,78.80
2022-07-29T05:07:04.579Z,76.68
2022-07-29T05:09:35.696Z,76.23
2022-07-29T05:12:14.301Z,75.20
2022-07-29T05:14:50.964Z,75.69
2022-07-29T05:17:22.944Z,73.61
2022-07-29T05:20:03.779Z,73.42
2022-07-29T05:22:33.236Z,71.76
2022-07-29T05:25:43.070Z,71.62
2022-07-29T05:28:32.647Z,72.45
2022-07-29T05:31:16.547Z,73.15
2022-07-29T05:34:17.352Z,73.83
2022-07-29T05:36:52.507Z,73.78
2022-07-29T05:39:48.494Z,73.80
2022-07-29T05:42:15.938Z,74.40
2022-07-29T05:45:01.007Z,73.79
2022-07-29T05:47:27.698Z,73.04
2022-07-29T05:49:55.097Z,71.27
2022-07-29T05:52:22.188Z,71.53
2022-07-29T05:54:48.822Z,72.18
2022-07-29T05:57:22.964Z,73.37
2022-07-29T05:59:50.221Z,73.41
2022-07-29T06:02:16.879Z,73.53
2022-07-29T06:04:43.605Z,74.10
2022-07-29T06:07:10.166Z,71.68
2022-07-29T06:09:44.148Z,71.50
2022-07-29T06:12:11.002Z,70.78
2022-07-29T06:14:39.036Z,71.75
2022-07-29T06:17:06.394Z,72.01
2022-07-29T06:19:34.835Z,69.37
2022-07-29T06:22:01.266Z,69.03
2022-07-29T06:24:28.172Z,68.36
2022-07-29T06:26:54.696Z,70.51
2022-07-29T06:29:21.236Z,69.84
2022-07-29T06:31:47.764Z,69.19
2022-07-29T06:34:14.676Z,68.70
2022-07-29T06:36:41.897Z,68.23
2022-07-29T06:39:08.733Z,67.37
2022-07-29T06:41:35.091Z,67.17
2022-07-29T06:44:01.468Z,66.35
2022-07-29T06:46:28.628Z,66.57
2022-07-29T06:48:55.259Z,65.35
2022-07-29T06:51:23.244Z,67.32
2022-07-29T06:54:00.494Z,66.00
2022-07-29T06:56:39.315Z,66.82
2022-07-29T06:59:06.872Z,65.73
2022-07-29T07:01:33.529Z,64.73
2022-07-29T07:03:59.917Z,65.40
2022-07-29T07:06:26.288Z,64.54
2022-07-29T07:08:52.718Z,63.67
2022-07-29T07:11:19.117Z,65.33
2022-07-29T07:13:45.501Z,65.82
2022-07-29T07:16:11.972Z,65.59
2022-07-29T07:18:38.380Z,66.51
2022-07-29T07:21:06.093Z,65.35
2022-07-29T07:23:32.546Z,61.68
2022-07-29T07:25:59.075Z,62.55
2022-07-29T07:28:25.714Z,60.35
2022-07-29T07:30:52.758Z,61.33
2022-07-29T07:33:19.636Z,63.10
2022-07-29T07:35:46.255Z,65.08
2022-07-29T07:38:12.693Z,62.81
2022-07-29T07:40:39.397Z,59.02
2022-07-29T07:43:05.789Z,57.76
2022-07-29T07:45:34.899Z,57.01
2022-07-29T07:48:01.371Z,57.47
2022-07-29T07:50:27.945Z,54.81
2022-07-29T07:52:58.441Z,53.34
2022-07-29T07:55:24.889Z,52.16
2022-07-29T07:57:51.321Z,48.47
2022-07-29T08:00:23.839Z,48.12
2022-07-29T08:03:22.984Z,45.32
2022-07-29T08:05:51.896Z,44.63
2022-07-29T08:08:18.924Z,45.62
2022-07-29T08:17:35.652Z,49.53
2022-07-29T08:20:10.900Z,47.47
2022-07-29T08:22:39.807Z,49.85
2022-07-29T08:25:09.955Z,50.54
2022-07-29T08:27:44.364Z,51.08
2022-07-29T08:30:29.514Z,48.51
2022-07-29T08:36:42.809Z,46.51
2022-07-29T08:42:39.497Z,45.41
2022-07-29T08:52:06.865Z,43.86
2022-07-29T08:57:38.078Z,42.82
2022-07-29T09:00:08.138Z,41.89
2022-07-29T09:37:40.916Z,39.33
2022-07-29T09:58:35.950Z,38.03
2022-07-29T10:40:57.300Z,36.59
2022-07-29T10:50:39.667Z,40.30
2022-07-29T11:22:04.530Z,33.36
2022-07-29T11:24:34.969Z,33.45
2022-07-29T11:27:20.029Z,35.61
2022-07-29T11:33:56.233Z,36.60
2022-07-29T11:36:32.980Z,35.42
2022-07-29T11:42:44.590Z,36.44
2022-07-29T11:45:43.739Z,34.04
2022-07-29T11:48:28.590Z,33.07
2022-07-29T11:51:32.855Z,33.18
2022-07-29T11:54:05.394Z,35.78
2022-07-29T11:56:33.771Z,33.12
2022-07-29T11:59:11.132Z,31.53
2022-07-29T12:02:02.449Z,32.42
2022-07-29T12:04:55.698Z,34.61
2022-07-29T12:07:03.208Z,35.29
2022-07-29T12:07:35.318Z,34.41
2022-07-29T12:10:03.191Z,32.52
2022-07-29T12:12:30.101Z,34.31
2022-07-29T12:27:02.333Z,35.74
2022-07-29T12:35:40.414Z,34.93
2022-07-29T12:39:07.446Z,36.56
2022-07-29T14:30:26.363Z,34.40
2022-07-29T14:35:18.183Z,35.81
2022-07-29T14:40:37.351Z,34.60
2022-07-29T14:50:55.208Z,34.37
2022-07-29T14:54:08.610Z,35.28
2022-07-29T23:51:44.511Z,56.13
2022-07-29T23:54:16.600Z,55.83
